createdAt,value
2018-12-04T00:00:35.648Z,94.12
2018-12-04T00:03:09.130Z,94.42
2018-12-04T00:05:42.078Z,94.98
2018-12-04T00:08:15.613Z,93.36
2018-12-04T00:10:48.721Z,92.14
2018-12-04T00:13:21.616Z,92.11
2018-12-04T00:15:54.864Z,89.79
2018-12-04T00:18:27.854Z,89.73
2018-12-04T00:21:00.771Z,90.30
2018-12-04T00:23:34.784Z,90.40
2018-12-04T00:26:07.795Z,90.16
2018-12-04T00:28:40.818Z,90.43
2018-12-04T00:31:14.070Z,90.74
2018-12-04T00:33:47.594Z,90.69
2018-12-04T00:36:20.644Z,90.55
2018-12-04T00:38:55.226Z,90.51
2018-12-04T00:41:28.189Z,90.42
2018-12-04T00:44:01.196Z,90.10
2018-12-04T00:46:34.344Z,90.32
2018-12-04T00:49:08.151Z,90.52
2018-12-04T00:51:41.453Z,90.64
2018-12-04T00:54:14.998Z,90.91
2018-12-04T00:56:47.941Z,91.40
2018-12-04T00:59:20.928Z,92.14
2018-12-04T01:01:53.886Z,92.51
2018-12-04T01:04:27.797Z,92.56
2018-12-04T01:07:00.733Z,92.48
2018-12-04T01:09:33.759Z,92.20
2018-12-04T01:12:07.304Z,92.08
2018-12-04T01:14:40.335Z,92.33
2018-12-04T01:17:13.280Z,92.54
2018-12-04T01:19:46.729Z,92.49
2018-12-04T01:22:19.655Z,92.63
2018-12-04T01:24:52.709Z,92.71
2018-12-04T01:27:26.335Z,92.87
2018-12-04T01:29:59.442Z,92.92
2018-12-04T01:32:32.457Z,92.96
2018-12-04T01:35:07.184Z,93.11
2018-12-04T01:37:43.910Z,93.18
2018-12-04T01:40:16.952Z,93.27
2018-12-04T01:42:50.350Z,93.43
2018-12-04T01:45:23.305Z,93.62
2018-12-04T01:47:57.512Z,93.76
2018-12-04T01:50:32.209Z,93.97
2018-12-04T01:53:05.396Z,94.19
2018-12-04T01:55:38.359Z,94.36
2018-12-04T01:58:12.224Z,94.40
2018-12-04T02:00:45.408Z,94.65
2018-12-04T02:03:18.453Z,94.76
2018-12-04T02:05:51.976Z,94.89
2018-12-04T02:08:25.296Z,95.04
2018-12-04T02:10:59.404Z,95.12
2018-12-04T02:13:35.868Z,95.14
2018-12-04T02:16:09.402Z,95.20
2018-12-04T02:18:42.588Z,95.21
2018-12-04T02:21:16.080Z,95.24
2018-12-04T02:23:49.184Z,95.24
2018-12-04T02:26:22.993Z,95.33
2018-12-04T02:28:56.473Z,95.36
2018-12-04T02:31:31.942Z,95.44
2018-12-04T02:34:04.905Z,95.39
2018-12-04T02:36:38.522Z,95.27
2018-12-04T02:39:11.557Z,95.15
2018-12-04T02:41:44.556Z,95.09
2018-12-04T02:44:19.516Z,95.09
2018-12-04T02:46:52.553Z,95.07
2018-12-04T02:49:25.477Z,94.89
2018-12-04T02:51:59.165Z,94.76
2018-12-04T02:54:33.057Z,94.65
2018-12-04T02:57:07.543Z,94.55
2018-12-04T02:59:41.947Z,94.53
2018-12-04T03:02:14.930Z,94.53
2018-12-04T03:04:47.927Z,94.61
2018-12-04T03:07:21.575Z,94.61
2018-12-04T03:09:54.768Z,94.71
2018-12-04T03:12:28.014Z,94.78
2018-12-04T03:15:03.801Z,94.79
2018-12-04T03:17:37.413Z,94.87
2018-12-04T03:20:11.112Z,94.99
2018-12-04T03:22:44.658Z,95.08
2018-12-04T03:25:17.495Z,95.17
2018-12-04T03:27:51.371Z,95.26
2018-12-04T03:30:24.823Z,95.28
2018-12-04T03:32:57.760Z,95.38
2018-12-04T03:35:31.027Z,95.50
2018-12-04T03:38:05.566Z,95.62
2018-12-04T03:40:38.840Z,95.72
2018-12-04T03:43:11.668Z,95.92
2018-12-04T03:45:48.446Z,95.98
2018-12-04T03:48:21.427Z,95.91
2018-12-04T03:50:54.390Z,95.91
2018-12-04T03:53:27.931Z,95.91
2018-12-04T03:56:01.794Z,95.80
2018-12-04T03:58:35.793Z,95.89
2018-12-04T04:01:09.295Z,95.99
2018-12-04T04:03:42.432Z,96.08
2018-12-04T04:06:15.550Z,96.16
2018-12-04T04:08:49.025Z,96.19
2018-12-04T04:11:22.095Z,96.17
2018-12-04T04:13:55.125Z,96.16
2018-12-04T04:16:29.678Z,96.25
2018-12-04T04:19:02.797Z,96.30
2018-12-04T04:21:35.785Z,96.29
2018-12-04T04:24:09.333Z,96.36
2018-12-04T04:26:42.704Z,96.41
2018-12-04T04:29:15.748Z,96.50
2018-12-04T04:31:50.180Z,96.60
2018-12-04T04:34:23.161Z,96.68
2018-12-04T04:36:56.439Z,96.76
2018-12-04T04:39:29.759Z,96.74
2018-12-04T04:42:02.821Z,96.77
2018-12-04T04:44:36.540Z,96.77
2018-12-04T04:47:10.177Z,96.75
2018-12-04T04:49:43.121Z,96.80
2018-12-04T04:52:17.028Z,96.83
2018-12-04T04:54:50.540Z,96.90
2018-12-04T04:57:23.601Z,96.92
2018-12-04T04:59:57.190Z,96.93
2018-12-04T05:02:30.307Z,96.92
2018-12-04T05:05:03.612Z,96.98
2018-12-04T05:07:36.611Z,96.95
2018-12-04T05:10:13.109Z,97.04
2018-12-04T05:12:47.885Z,97.03
2018-12-04T05:15:21.586Z,97.03
2018-12-04T05:17:55.577Z,97.04
2018-12-04T05:20:28.754Z,96.93
2018-12-04T05:23:03.788Z,97.06
2018-12-04T05:25:39.043Z,97.41
2018-12-04T05:28:12.185Z,97.63
2018-12-04T05:30:45.192Z,97.78
2018-12-04T05:33:18.150Z,97.83
2018-12-04T05:35:51.700Z,97.87
2018-12-04T05:38:24.688Z,97.86
2018-12-04T05:40:57.770Z,97.84
2018-12-04T05:43:33.526Z,97.77
2018-12-04T05:46:06.536Z,97.66
2018-12-04T05:48:39.616Z,97.58
2018-12-04T05:51:13.077Z,97.49
2018-12-04T05:53:46.049Z,97.47
2018-12-04T05:56:19.328Z,97.43
2018-12-04T05:58:54.481Z,97.43
2018-12-04T06:01:28.037Z,97.36
2018-12-04T06:04:01.034Z,97.31
2018-12-04T06:06:34.156Z,97.31
2018-12-04T06:09:09.265Z,97.41
2018-12-04T06:11:42.328Z,97.58
2018-12-04T06:14:15.294Z,97.70
2018-12-04T06:16:49.187Z,97.83
2018-12-04T06:19:22.253Z,97.91
2018-12-04T06:21:55.334Z,97.94
2018-12-04T06:24:29.082Z,97.89
2018-12-04T06:27:02.720Z,97.79
2018-12-04T06:29:35.898Z,97.64
2018-12-04T06:32:09.333Z,97.41
2018-12-04T06:34:42.649Z,97.18
2018-12-04T06:37:16.717Z,96.95
2018-12-04T06:39:50.242Z,96.72
2018-12-04T06:42:23.653Z,96.51
2018-12-04T06:44:57.050Z,96.33
2018-12-04T06:47:30.568Z,96.18
2018-12-04T06:50:06.147Z,96.03
2018-12-04T06:52:39.543Z,95.97
2018-12-04T06:55:14.479Z,96.00
2018-12-04T06:57:58.818Z,95.83
2018-12-04T07:00:32.773Z,95.63
2018-12-04T07:03:06.709Z,95.47
2018-12-04T07:05:40.404Z,95.36
2018-12-04T07:08:13.323Z,95.25
2018-12-04T07:10:46.357Z,95.17
2018-12-04T07:13:20.477Z,95.24
2018-12-04T07:15:53.585Z,95.45
2018-12-04T07:18:28.373Z,95.60
2018-12-04T07:21:02.170Z,95.72
2018-12-04T07:23:35.300Z,95.87
2018-12-04T07:26:08.800Z,95.97
2018-12-04T07:28:44.865Z,96.08
2018-12-04T07:31:20.726Z,96.19
2018-12-04T07:33:53.873Z,96.32
2018-12-04T07:36:27.990Z,96.42
2018-12-04T07:39:01.068Z,96.52
2018-12-04T07:41:35.836Z,96.61
2018-12-04T07:44:09.280Z,96.70
2018-12-04T07:46:42.225Z,96.99
2018-12-04T07:49:15.849Z,97.23
2018-12-04T07:51:51.957Z,97.52
2018-12-04T07:54:25.398Z,97.86
2018-12-04T07:57:01.746Z,98.09
2018-12-04T07:59:35.248Z,98.17
2018-12-04T08:02:08.618Z,98.19
2018-12-04T08:04:43.598Z,98.23
2018-12-04T08:07:18.080Z,98.31
2018-12-04T08:09:51.237Z,98.40
2018-12-04T08:12:24.192Z,98.54
2018-12-04T08:14:58.212Z,98.63
2018-12-04T08:17:32.078Z,98.71
2018-12-04T08:20:07.132Z,98.82
2018-12-04T08:22:43.048Z,98.84
2018-12-04T08:25:16.372Z,98.85
2018-12-04T08:27:49.604Z,98.83
2018-12-04T08:30:23.266Z,98.75
2018-12-04T08:32:56.241Z,98.75
2018-12-04T08:35:32.773Z,98.79
2018-12-04T08:38:07.497Z,98.79
2018-12-04T08:40:40.758Z,98.71
2018-12-04T08:43:13.757Z,98.62
2018-12-04T08:45:48.187Z,98.56
2018-12-04T08:48:22.168Z,98.43
2018-12-04T08:50:55.212Z,98.22
2018-12-04T08:53:31.620Z,97.91
2018-12-04T08:56:06.438Z,97.51
2018-12-04T08:58:39.511Z,97.06
2018-12-04T09:01:14.624Z,96.64
2018-12-04T09:03:49.148Z,96.31
2018-12-04T09:06:23.725Z,95.99
2018-12-04T09:08:59.430Z,95.65
2018-12-04T09:11:33.800Z,95.35
2018-12-04T09:14:07.362Z,95.07
2018-12-04T09:16:41.262Z,94.75
2018-12-04T09:19:14.481Z,94.52
2018-12-04T09:21:47.374Z,94.49
2018-12-04T09:24:21.795Z,94.54
2018-12-04T09:26:56.404Z,94.83
2018-12-04T09:29:32.692Z,95.14
2018-12-04T09:32:06.895Z,94.92
2018-12-04T09:34:40.301Z,94.08
2018-12-04T09:37:14.021Z,92.97
2018-12-04T09:39:48.440Z,92.20
2018-12-04T09:42:21.714Z,91.94
2018-12-04T09:44:54.777Z,91.59
2018-12-04T09:47:28.435Z,91.05
2018-12-04T09:50:01.929Z,90.47
2018-12-04T09:52:36.101Z,90.31
2018-12-04T09:55:12.366Z,89.97
2018-12-04T09:57:46.892Z,89.40
2018-12-04T10:00:20.945Z,89.42
2018-12-04T10:02:56.676Z,89.27
2018-12-04T10:05:30.454Z,89.42
2018-12-04T10:08:04.391Z,89.64
2018-12-04T10:10:41.806Z,90.06
2018-12-04T10:13:17.496Z,87.64
2018-12-04T10:15:51.641Z,86.50
2018-12-04T10:18:29.678Z,85.60
2018-12-04T10:21:07.377Z,85.01
2018-12-04T10:23:40.344Z,84.54
2018-12-04T10:26:14.921Z,84.76
2018-12-04T10:28:49.016Z,84.16
2018-12-04T10:31:23.895Z,84.06
2018-12-04T10:33:59.173Z,83.75
2018-12-04T10:36:32.149Z,84.20
2018-12-04T10:39:07.840Z,83.25
2018-12-04T10:41:41.209Z,82.95
2018-12-04T10:44:16.215Z,82.77
2018-12-04T10:46:49.919Z,82.35
2018-12-04T10:49:25.381Z,80.13
2018-12-04T10:51:59.918Z,79.10
2018-12-04T10:54:34.192Z,78.88
2018-12-04T10:57:09.892Z,76.95
2018-12-04T10:59:46.397Z,75.10
2018-12-04T11:02:24.601Z,76.25
2018-12-04T11:04:58.645Z,73.99
2018-12-04T11:07:32.792Z,73.43
2018-12-04T11:10:06.568Z,74.26
2018-12-04T11:12:39.633Z,75.25
2018-12-04T11:15:16.105Z,75.49
2018-12-04T11:17:49.097Z,76.16
2018-12-04T11:20:22.272Z,76.46
2018-12-04T11:22:56.115Z,76.78
2018-12-04T11:25:29.288Z,74.04
2018-12-04T11:28:02.429Z,72.08
2018-12-04T11:30:36.865Z,72.97
2018-12-04T11:33:09.873Z,71.95
2018-12-04T11:35:42.820Z,68.69
2018-12-04T11:38:17.566Z,68.93
2018-12-04T11:40:52.217Z,70.20
2018-12-04T11:43:25.531Z,68.59
2018-12-04T11:46:00.774Z,69.17
2018-12-04T11:48:37.705Z,67.50
2018-12-04T11:51:11.387Z,65.53
2018-12-04T11:53:44.694Z,65.63
2018-12-04T11:56:17.777Z,66.29
2018-12-04T11:58:51.219Z,67.18
2018-12-04T12:01:28.067Z,68.15
2018-12-04T12:04:01.275Z,69.50
2018-12-04T12:06:35.327Z,69.86
2018-12-04T12:09:11.882Z,69.94
2018-12-04T12:11:44.977Z,70.30
2018-12-04T12:14:18.196Z,70.51
2018-12-04T12:16:52.841Z,70.71
2018-12-04T12:19:26.061Z,70.91
2018-12-04T12:22:00.530Z,71.27
2018-12-04T12:24:34.184Z,71.73
2018-12-04T12:27:07.176Z,72.99
2018-12-04T12:29:43.590Z,72.57
2018-12-04T12:32:17.027Z,72.34
2018-12-04T12:34:50.845Z,72.10
2018-12-04T12:37:24.585Z,72.12
2018-12-04T12:39:57.661Z,72.33
2018-12-04T12:42:31.385Z,72.36
2018-12-04T12:45:08.246Z,72.94
2018-12-04T12:47:41.222Z,73.09
2018-12-04T12:50:16.583Z,72.68
2018-12-04T12:52:49.678Z,71.41
2018-12-04T12:55:23.243Z,70.36
2018-12-04T12:57:55.497Z,70.20
2018-12-04T13:00:28.531Z,69.67
2018-12-04T13:03:01.976Z,69.80
2018-12-04T13:05:35.634Z,70.25
2018-12-04T13:08:10.087Z,70.70
2018-12-04T13:10:45.385Z,71.10
2018-12-04T13:13:18.982Z,71.39
2018-12-04T13:15:56.510Z,72.04
2018-12-04T13:18:29.670Z,72.06
2018-12-04T13:21:05.118Z,70.83
2018-12-04T13:23:39.274Z,70.22
2018-12-04T13:26:14.514Z,69.22
2018-12-04T13:28:48.677Z,68.64
2018-12-04T13:31:24.971Z,68.38
2018-12-04T13:33:59.252Z,69.12
2018-12-04T13:36:37.407Z,69.38
2018-12-04T13:39:18.816Z,69.85
2018-12-04T13:41:53.301Z,70.23
2018-12-04T13:44:29.127Z,70.59
2018-12-04T13:47:03.802Z,70.84
2018-12-04T13:49:39.244Z,70.69
2018-12-04T13:52:16.742Z,70.60
2018-12-04T13:54:51.642Z,69.80
2018-12-04T13:57:27.049Z,69.50
2018-12-04T14:00:07.758Z,68.95
2018-12-04T14:02:43.406Z,69.00
2018-12-04T14:05:20.539Z,69.51
2018-12-04T14:07:54.323Z,70.08
2018-12-04T14:10:29.381Z,70.66
2018-12-04T14:13:03.586Z,71.28
2018-12-04T14:15:36.699Z,71.76
2018-12-04T14:18:10.354Z,71.97
2018-12-04T14:21:05.449Z,72.46
2018-12-04T14:23:41.476Z,73.48
2018-12-04T14:26:14.861Z,74.66
2018-12-04T14:28:48.448Z,74.81
2018-12-04T14:31:25.735Z,75.07
2018-12-04T14:34:01.107Z,75.25
2018-12-04T14:36:38.619Z,75.51
2018-12-04T14:39:13.153Z,75.70
2018-12-04T14:41:46.231Z,75.83
2018-12-04T14:44:25.441Z,76.05
2018-12-04T14:47:01.456Z,76.85
2018-12-04T14:49:36.955Z,76.63
2018-12-04T14:52:11.945Z,77.78
2018-12-04T14:54:47.196Z,78.13
2018-12-04T14:57:20.862Z,78.04
2018-12-04T15:02:56.599Z,78.70
2018-12-04T15:05:30.727Z,79.04
2018-12-04T15:08:05.044Z,79.14
2018-12-04T15:10:40.703Z,79.26
2018-12-04T15:13:18.698Z,79.61
2018-12-04T15:15:54.349Z,80.10
2018-12-04T15:18:29.659Z,81.19
2018-12-04T15:21:03.566Z,81.17
2018-12-04T15:23:38.420Z,81.80
2018-12-04T15:26:12.785Z,81.94
2018-12-04T15:28:46.456Z,82.09
2018-12-04T15:31:19.572Z,82.59
2018-12-04T15:33:52.781Z,83.45
2018-12-04T15:36:26.694Z,84.26
2018-12-04T15:39:06.899Z,84.29
2018-12-04T15:41:46.176Z,84.30
2018-12-04T15:44:21.554Z,84.52
2018-12-04T15:46:57.444Z,85.44
2018-12-04T15:49:33.536Z,85.59
2018-12-04T15:52:07.589Z,85.36
2018-12-04T15:54:44.229Z,85.44
2018-12-04T15:57:20.346Z,85.71
2018-12-04T15:59:55.290Z,85.72
2018-12-04T16:02:30.315Z,86.93
2018-12-04T16:05:08.497Z,87.05
2018-12-04T16:07:42.627Z,87.17
2018-12-04T16:10:17.358Z,87.21
2018-12-04T16:12:51.458Z,87.25
2018-12-04T16:15:29.179Z,87.61
2018-12-04T16:18:02.377Z,88.04
2018-12-04T16:20:35.548Z,88.32
2018-12-04T16:23:09.479Z,88.15
2018-12-04T16:25:42.750Z,88.03
2018-12-04T16:28:17.564Z,87.74
2018-12-04T16:30:52.130Z,87.55
2018-12-04T16:33:29.651Z,87.85
2018-12-04T16:36:04.868Z,88.54
2018-12-04T16:38:39.355Z,88.74
2018-12-04T16:41:17.107Z,88.40
2018-12-04T16:43:50.781Z,88.55
2018-12-04T16:46:26.544Z,89.14
2018-12-04T16:48:59.746Z,89.54
2018-12-04T16:51:34.013Z,90.10
2018-12-04T16:54:11.310Z,90.89
2018-12-04T16:56:45.180Z,90.85
2018-12-04T16:59:18.437Z,90.60
2018-12-04T17:01:55.541Z,90.81
2018-12-04T17:04:28.782Z,91.52
2018-12-04T17:07:03.129Z,91.62
2018-12-04T17:09:37.980Z,91.79
2018-12-04T17:12:13.877Z,91.96
2018-12-04T17:14:47.730Z,92.31
2018-12-04T17:17:24.916Z,93.14
2018-12-04T17:20:00.545Z,93.16
2018-12-04T17:22:35.094Z,92.96
2018-12-04T17:25:25.054Z,92.77
2018-12-04T17:27:59.565Z,92.68
2018-12-04T17:30:35.742Z,92.94
2018-12-04T17:33:11.396Z,92.98
2018-12-04T17:35:46.382Z,93.07
2018-12-04T17:38:20.301Z,93.11
2018-12-04T17:40:53.490Z,93.24
2018-12-04T17:43:27.778Z,93.50
2018-12-04T17:46:01.132Z,93.49
2018-12-04T17:48:36.872Z,93.92
2018-12-04T17:51:13.242Z,94.17
2018-12-04T17:53:46.494Z,94.35
2018-12-04T17:56:21.229Z,94.19
2018-12-04T17:58:56.950Z,94.08
2018-12-04T18:01:31.392Z,94.08
2018-12-04T18:04:06.374Z,94.13
2018-12-04T18:06:42.877Z,94.18
2018-12-04T18:09:20.929Z,94.54
2018-12-04T18:11:58.190Z,94.64
2018-12-04T18:14:35.494Z,94.63
2018-12-04T18:17:10.574Z,94.62
2018-12-04T18:19:49.336Z,94.70
2018-12-04T18:22:22.719Z,94.87
2018-12-04T18:24:59.211Z,94.83
2018-12-04T18:27:33.847Z,94.74
2018-12-04T18:30:10.031Z,94.75
2018-12-04T18:32:48.460Z,94.66
2018-12-04T18:35:23.219Z,94.81
2018-12-04T18:37:58.948Z,94.81
2018-12-04T18:40:40.328Z,94.87
2018-12-04T18:43:13.882Z,95.10
2018-12-04T18:45:47.185Z,95.16
2018-12-04T18:48:20.590Z,95.31
2018-12-04T18:50:53.795Z,95.29
2018-12-04T18:53:29.322Z,95.31
2018-12-04T18:56:03.296Z,95.32
2018-12-04T18:58:37.251Z,95.72
2018-12-04T19:01:11.378Z,95.85
2018-12-04T19:03:44.492Z,95.95
2018-12-04T19:06:17.988Z,96.17
2018-12-04T19:08:52.056Z,96.39
2018-12-04T19:11:25.139Z,96.26
2018-12-04T19:14:00.863Z,96.12
2018-12-04T19:16:33.871Z,96.22
2018-12-04T19:19:11.040Z,96.46
2018-12-04T19:21:44.922Z,96.40
2018-12-04T19:24:23.951Z,96.28
2018-12-04T19:27:09.724Z,96.21
2018-12-04T19:29:59.845Z,96.19
2018-12-04T19:32:38.717Z,96.09
2018-12-04T19:35:14.802Z,95.91
2018-12-04T19:37:49.858Z,95.91
2018-12-04T19:40:25.316Z,95.88
2018-12-04T19:43:02.141Z,95.96
2018-12-04T19:45:35.783Z,95.97
2018-12-04T19:48:10.682Z,95.94
2018-12-04T19:50:47.087Z,95.82
2018-12-04T19:53:21.190Z,95.62
2018-12-04T19:55:56.262Z,95.50
2018-12-04T19:58:29.853Z,95.40
2018-12-04T20:01:04.550Z,95.29
2018-12-04T20:03:38.102Z,95.30
2018-12-04T20:06:11.400Z,95.47
2018-12-04T20:08:54.987Z,95.77
2018-12-04T20:11:28.246Z,96.00
2018-12-04T20:14:01.385Z,96.03
2018-12-04T20:16:36.679Z,96.12
2018-12-04T20:19:10.821Z,96.17
2018-12-04T20:21:47.101Z,96.14
2018-12-04T20:24:23.591Z,95.91
2018-12-04T20:26:57.749Z,95.77
2018-12-04T20:29:31.870Z,95.95
2018-12-04T20:32:07.694Z,96.08
2018-12-04T20:34:42.316Z,96.27
2018-12-04T20:37:18.471Z,96.41
2018-12-04T20:39:53.594Z,96.42
2018-12-04T20:42:28.814Z,96.61
2018-12-04T20:45:06.224Z,96.72
2018-12-04T20:47:41.115Z,96.66
2018-12-04T20:50:14.734Z,96.67
2018-12-04T20:52:49.501Z,96.65
2018-12-04T20:55:23.806Z,96.54
2018-12-04T20:57:58.407Z,96.65
2018-12-04T21:00:32.671Z,96.89
2018-12-04T21:03:08.633Z,97.03
2018-12-04T21:05:44.780Z,97.02
2018-12-04T21:08:20.220Z,96.99
2018-12-04T21:10:56.215Z,96.82
2018-12-04T21:13:29.998Z,96.71
2018-12-04T21:16:03.960Z,96.68
2018-12-04T21:18:39.727Z,96.81
2018-12-04T21:21:13.726Z,96.82
2018-12-04T21:23:48.304Z,96.77
2018-12-04T21:26:21.552Z,96.79
2018-12-04T21:29:01.949Z,96.81
2018-12-04T21:31:41.618Z,96.80
2018-12-04T21:34:20.474Z,96.96
2018-12-04T21:37:01.744Z,97.00
2018-12-04T21:39:36.479Z,96.91
2018-12-04T21:42:18.051Z,96.93
2018-12-04T21:44:57.357Z,96.96
2018-12-04T21:47:38.631Z,96.90
2018-12-04T21:50:13.411Z,96.88
2018-12-04T21:52:48.773Z,96.87
2018-12-04T21:55:24.341Z,96.87
2018-12-04T21:57:57.333Z,96.98
2018-12-04T22:00:32.364Z,97.22
2018-12-04T22:03:08.554Z,97.36
2018-12-04T22:05:44.608Z,97.31
2018-12-04T22:08:18.688Z,97.35
2018-12-04T22:10:52.337Z,97.39
2018-12-04T22:13:25.713Z,97.51
2018-12-04T22:16:03.808Z,97.70
2018-12-04T22:18:37.316Z,97.89
2018-12-04T22:21:10.613Z,98.09
2018-12-04T22:23:43.735Z,98.23
2018-12-04T22:26:17.243Z,98.27
2018-12-04T22:28:50.381Z,98.29
2018-12-04T22:31:23.518Z,98.45
2018-12-04T22:33:57.138Z,98.69
2018-12-04T22:36:32.479Z,98.76
2018-12-04T22:39:10.592Z,98.68
2018-12-04T22:41:44.542Z,98.62
2018-12-04T22:44:18.277Z,98.63
2018-12-04T22:46:52.770Z,98.59
2018-12-04T22:49:26.273Z,98.57
2018-12-04T22:52:01.251Z,98.66
2018-12-04T22:54:34.405Z,98.80
2018-12-04T22:57:08.962Z,98.73
2018-12-04T22:59:42.005Z,98.70
2018-12-04T23:02:16.897Z,98.72
2018-12-04T23:04:51.402Z,98.73
2018-12-04T23:07:24.793Z,98.84
2018-12-04T23:09:57.806Z,98.96
2018-12-04T23:12:31.357Z,99.01
2018-12-04T23:15:06.230Z,99.07
2018-12-04T23:17:42.616Z,99.16
2018-12-04T23:20:16.101Z,99.24
2018-12-04T23:22:50.130Z,99.33
2018-12-04T23:25:23.042Z,99.41
2018-12-04T23:27:57.893Z,99.56
2018-12-04T23:30:30.894Z,99.69
2018-12-04T23:33:05.624Z,99.78
2018-12-04T23:35:39.353Z,99.91
2018-12-04T23:38:12.728Z,99.90
2018-12-04T23:40:45.983Z,99.95
2018-12-04T23:43:19.258Z,99.81
2018-12-04T23:45:52.551Z,99.74
2018-12-04T23:48:25.692Z,99.92
2018-12-04T23:50:59.079Z,100.00
2018-12-04T23:53:32.259Z,100.00
2018-12-04T23:56:05.348Z,100.00
2018-12-04T23:58:38.832Z,100.00
